createdAt,value
2023-03-30T00:09:22.856Z,4.35
2023-03-30T00:14:31.586Z,3.22
2023-03-30T01:11:17.818Z,3.90
2023-03-30T01:22:07.550Z,4.40
2023-03-30T01:27:43.466Z,4.13
2023-03-30T01:33:23.481Z,3.33
2023-03-30T01:39:09.576Z,4.97
2023-03-30T01:44:35.855Z,4.57
2023-03-30T01:49:47.674Z,3.88
2023-03-30T01:55:02.091Z,4.00
2023-03-30T02:00:14.796Z,3.80
2023-03-30T02:46:15.196Z,5.28
2023-03-30T02:56:51.488Z,5.72
2023-03-30T03:02:12.667Z,5.60
2023-03-30T04:07:18.622Z,5.30
2023-03-30T04:12:32.066Z,5.00
2023-03-30T05:13:53.785Z,4.72
2023-03-30T05:19:03.434Z,4.40
2023-03-30T05:24:26.445Z,4.13
2023-03-30T05:29:32.978Z,4.55
2023-03-30T05:34:42.221Z,4.75
2023-03-30T05:39:48.257Z,4.95
2023-03-30T05:45:00.510Z,4.57
2023-03-30T05:50:08.765Z,4.97
2023-03-30T05:55:17.440Z,4.47
2023-03-30T06:00:24.965Z,4.80
2023-03-30T06:51:25.681Z,5.18
2023-03-30T06:56:35.317Z,4.53
2023-03-30T07:01:40.479Z,4.95
2023-03-30T07:06:45.751Z,4.38
2023-03-30T08:17:14.197Z,3.63
2023-03-30T08:22:18.790Z,3.60
2023-03-30T08:27:27.761Z,3.30
2023-03-30T08:32:35.357Z,3.58
2023-03-30T08:37:55.062Z,4.38
2023-03-30T08:43:21.436Z,3.65
2023-03-30T08:48:37.975Z,3.85
2023-03-30T08:53:44.066Z,4.00
2023-03-30T08:58:57.704Z,3.67
2023-03-30T09:50:10.037Z,3.63
2023-03-30T09:55:31.148Z,3.78
2023-03-30T10:00:35.508Z,3.35
2023-03-30T10:05:41.540Z,3.10
2023-03-30T10:10:56.019Z,3.30
2023-03-30T10:16:17.836Z,2.92
2023-03-30T11:00:54.341Z,4.47
2023-03-30T11:06:03.753Z,4.20
2023-03-30T11:11:18.139Z,3.40
2023-03-30T11:16:35.559Z,4.60
2023-03-30T11:21:46.779Z,3.50
2023-03-30T11:26:54.939Z,3.70
2023-03-30T11:32:30.512Z,4.53
2023-03-30T12:33:13.502Z,3.88
2023-03-30T12:38:34.091Z,3.88
2023-03-30T12:43:48.859Z,4.00
2023-03-30T12:49:07.330Z,3.88
2023-03-30T12:55:28.236Z,4.20
2023-03-30T13:00:45.996Z,4.35
2023-03-30T13:05:56.603Z,4.40
2023-03-30T13:11:18.685Z,4.63
2023-03-30T13:16:47.979Z,4.80
2023-03-30T13:21:57.316Z,4.78
2023-03-30T13:27:24.544Z,4.60
2023-03-30T13:32:54.055Z,4.75
2023-03-30T13:38:36.128Z,4.40
2023-03-30T13:43:53.218Z,4.75
2023-03-30T13:49:16.218Z,4.80
2023-03-30T13:54:23.226Z,4.80
2023-03-30T13:59:31.755Z,4.53
2023-03-30T14:04:39.156Z,4.18
2023-03-30T14:09:42.341Z,4.75
2023-03-30T14:14:51.539Z,4.15
2023-03-30T14:20:09.362Z,5.07
2023-03-30T14:25:25.010Z,3.78
2023-03-30T14:30:31.450Z,5.05
2023-03-30T14:35:34.826Z,4.97
2023-03-30T14:40:42.648Z,5.27
2023-03-30T14:45:50.163Z,4.65
2023-03-30T14:50:54.987Z,4.43
2023-03-30T14:56:00.715Z,4.38
2023-03-30T15:01:12.734Z,4.38
2023-03-30T15:06:47.640Z,3.97
2023-03-30T16:16:41.928Z,4.65
2023-03-30T16:21:46.267Z,3.92
2023-03-30T16:31:56.085Z,3.90
2023-03-30T16:36:59.298Z,4.50
2023-03-30T16:42:05.134Z,4.38
2023-03-30T16:47:16.919Z,4.50
2023-03-30T16:52:20.097Z,4.70
2023-03-30T16:57:25.706Z,4.95
2023-03-30T17:02:30.508Z,4.45
2023-03-30T17:07:36.714Z,4.70
2023-03-30T17:12:41.802Z,4.70
2023-03-30T17:17:52.905Z,5.60
2023-03-30T17:23:19.014Z,5.05
2023-03-30T20:31:18.056Z,5.68
2023-03-30T20:41:30.383Z,6.25
2023-03-30T20:46:38.092Z,5.25
2023-03-30T20:51:43.331Z,5.25
2023-03-30T20:56:50.244Z,5.63
2023-03-30T21:02:00.147Z,5.47
2023-03-30T21:07:06.791Z,6.07
2023-03-30T21:12:12.389Z,6.07
2023-03-30T21:17:17.973Z,5.78
2023-03-30T21:22:21.536Z,5.30
2023-03-30T21:27:29.009Z,4.78
2023-03-30T21:32:39.236Z,6.20
2023-03-30T21:37:42.873Z,5.05
2023-03-30T21:42:54.583Z,6.13
2023-03-30T21:48:04.014Z,5.60
2023-03-30T21:53:10.762Z,4.97
2023-03-30T21:58:13.969Z,7.18
2023-03-30T22:03:21.368Z,5.25
2023-03-30T22:08:36.458Z,6.60
2023-03-30T22:13:39.711Z,5.25
2023-03-30T22:18:49.137Z,5.35
2023-03-30T22:23:55.820Z,5.10
2023-03-30T22:29:14.967Z,4.60
2023-03-30T22:34:19.502Z,4.43
2023-03-30T22:39:24.733Z,4.68
2023-03-30T22:44:32.404Z,3.25
2023-03-30T22:49:52.821Z,3.28
2023-03-30T22:54:58.889Z,2.65
2023-03-30T23:00:12.455Z,2.13
2023-03-30T23:05:22.327Z,2.50
2023-03-30T23:10:34.792Z,2.00
2023-03-30T23:15:42.196Z,2.03
2023-03-30T23:20:46.879Z,1.83
2023-03-30T23:31:00.272Z,1.90
2023-03-30T23:36:08.877Z,1.25
2023-03-30T23:41:16.568Z,1.50
2023-03-30T23:46:22.180Z,1.55
2023-03-30T23:51:34.395Z,1.48
2023-03-30T23:56:46.254Z,1.05
